Terminal Aerodrome Forecast
Issued by NWS

Home | Current Version | Previous Version | Text Only | Print | Product List | Glossary On
Versions: 1 2 3 4 5 6 7 8 9 10 11 12 13 14 15 16 17 18 19 20
000
FTAK31 PAJN 251100
TAFAJN
TAF
PAJN 251126Z 2512/2612 VRB06KT 6SM -SHRA BR FEW003 SCT015 OVC025
      WS020/22030KT
     FM251300 14015G30KT 6SM -SHRA BR SCT015 OVC030
      TEMPO 2513/2515 21015KT
     FM251800 14010G20KT 5SM -SHRA BR BKN015 OVC025
     FM252100 14010G20KT P6SM VCSH BKN050 OVC070
     FM260300 10006KT P6SM VCSH BKN060=

USA.gov is the U.S. government's official web portal to all federal, state and local government web resources and services.